Time;durP1;ratioP1;P1;durP2;ratioP2;P2;SDS_P1;SDS_P2;PMS_P1;PMS_P2;Temp;Humidity;BMP_temperature;BMP_pressure;BME280_temperature;BME280_humidity;BME280_pressure;Samples;Min_cycle;Max_cycle;Signal;HPM_P1;HPM_P2
2022/03/26 00:01:56;;;;;;;56.60;38.25;;;8.60;73.60;;;;;;4994476;28;20240;-81
2022/03/26 00:04:22;;;;;;;57.47;38.40;;;8.60;73.60;;;;;;4986044;28;20022;-82
2022/03/26 00:06:48;;;;;;;61.35;39.17;;;8.60;73.50;;;;;;4988106;28;20389;-81
2022/03/26 00:09:14;;;;;;;59.28;38.92;;;8.60;73.50;;;;;;4999837;28;20180;-81
2022/03/26 00:11:41;;;;;;;56.60;37.80;;;8.60;73.40;;;;;;4995816;28;20034;-82
2022/03/26 00:14:07;;;;;;;55.47;37.72;;;8.60;73.60;;;;;;4986379;28;20050;-82
2022/03/26 00:16:34;;;;;;;60.75;38.60;;;8.60;73.40;;;;;;4992783;28;20042;-79
2022/03/26 00:19:00;;;;;;;60.90;38.17;;;8.60;73.40;;;;;;4993067;28;20026;-81
2022/03/26 00:21:27;;;;;;;53.15;36.42;;;8.60;73.40;;;;;;4988501;28;20549;-81
2022/03/26 00:23:53;;;;;;;60.72;38.53;;;8.50;73.50;;;;;;4998242;28;20393;-80
2022/03/26 00:26:20;;;;;;;60.22;39.47;;;8.50;73.50;;;;;;5006434;28;20038;-80
2022/03/26 00:28:46;;;;;;;62.00;38.50;;;8.50;73.60;;;;;;4998979;28;20383;-81
2022/03/26 00:31:12;;;;;;;58.47;38.78;;;8.50;73.50;;;;;;4989312;28;20031;-81
2022/03/26 00:33:40;;;;;;;56.67;37.40;;;8.50;73.60;;;;;;4988401;28;20034;-79
2022/03/26 00:36:08;;;;;;;60.05;38.50;;;8.40;73.70;;;;;;4994120;28;20085;-79
2022/03/26 00:38:34;;;;;;;58.55;37.95;;;8.40;73.70;;;;;;5026680;28;20041;-77
2022/03/26 00:41:02;;;;;;;59.13;37.08;;;8.40;73.70;;;;;;5006361;28;20046;-78
2022/03/26 00:43:29;;;;;;;57.38;37.10;;;8.40;73.50;;;;;;4992319;28;20078;-77
2022/03/26 00:45:55;;;;;;;60.08;38.03;;;8.40;73.70;;;;;;5007165;28;20836;-80
2022/03/26 00:48:21;;;;;;;61.22;36.88;;;8.30;73.70;;;;;;4991004;28;20049;-79
2022/03/26 00:50:47;;;;;;;57.67;36.67;;;8.40;73.80;;;;;;4994014;28;20129;-81
2022/03/26 00:53:13;;;;;;;57.95;38.03;;;8.30;73.80;;;;;;4993443;28;20061;-80
2022/03/26 00:55:39;;;;;;;59.30;38.13;;;8.30;73.90;;;;;;4991819;28;20376;-82
2022/03/26 00:58:05;;;;;;;61.78;37.78;;;8.30;74.00;;;;;;4982895;28;20039;-82
2022/03/26 01:00:31;;;;;;;63.55;40.30;;;8.30;74.00;;;;;;4980475;28;20057;-82
2022/03/26 01:02:58;;;;;;;56.03;37.35;;;8.30;74.00;;;;;;4992602;28;20554;-81
2022/03/26 01:05:24;;;;;;;60.58;39.17;;;8.20;74.00;;;;;;4997047;28;20022;-81
2022/03/26 01:07:52;;;;;;;57.67;37.05;;;8.20;74.00;;;;;;4989086;28;20097;-82
2022/03/26 01:10:18;;;;;;;58.28;36.75;;;8.20;74.00;;;;;;4997410;28;20029;-82
2022/03/26 01:12:44;;;;;;;54.33;35.72;;;8.20;74.10;;;;;;4986884;28;20034;-80
2022/03/26 01:15:10;;;;;;;56.78;36.70;;;8.10;74.10;;;;;;4997784;28;20030;-79
2022/03/26 01:17:36;;;;;;;58.05;36.28;;;8.10;74.10;;;;;;4998508;28;20085;-82
2022/03/26 01:20:02;;;;;;;54.60;36.88;;;8.10;74.20;;;;;;4992443;28;20039;-81
2022/03/26 01:22:28;;;;;;;55.72;35.35;;;8.10;74.40;;;;;;5005523;28;20045;-82
2022/03/26 01:24:54;;;;;;;53.80;36.67;;;8.00;74.50;;;;;;5003254;28;20036;-82
2022/03/26 01:27:19;;;;;;;62.38;37.92;;;8.00;74.70;;;;;;4984130;28;20023;-81
2022/03/26 01:29:45;;;;;;;58.40;36.22;;;8.00;74.80;;;;;;5002871;28;20050;-82
2022/03/26 01:32:11;;;;;;;60.47;38.13;;;7.90;74.80;;;;;;4987156;28;20045;-80
2022/03/26 01:34:37;;;;;;;63.92;37.88;;;7.90;74.90;;;;;;4991132;28;20030;-82
2022/03/26 01:37:03;;;;;;;60.67;38.90;;;8.00;74.80;;;;;;5001856;28;20540;-81
2022/03/26 01:39:30;;;;;;;59.67;37.35;;;7.90;74.90;;;;;;5002909;28;20029;-82
2022/03/26 01:42:06;;;;;;;56.83;37.40;;;7.90;75.00;;;;;;4999908;28;20033;-80
2022/03/26 01:44:32;;;;;;;57.70;37.95;;;7.90;75.00;;;;;;4998557;28;20125;-80
2022/03/26 01:46:59;;;;;;;58.63;36.67;;;7.80;75.10;;;;;;5003585;28;20474;-82
2022/03/26 01:49:26;;;;;;;62.97;36.15;;;7.80;75.20;;;;;;4992790;28;20581;-80
2022/03/26 01:51:51;;;;;;;56.88;36.78;;;7.80;75.30;;;;;;4996283;28;20474;-82
2022/03/26 01:54:19;;;;;;;52.70;36.22;;;7.80;75.20;;;;;;4989469;28;20443;-82
2022/03/26 01:56:45;;;;;;;57.85;36.28;;;7.70;75.40;;;;;;4998075;28;20037;-80
2022/03/26 01:59:11;;;;;;;56.47;36.65;;;7.70;75.50;;;;;;4987056;28;20096;-81
2022/03/26 02:01:38;;;;;;;57.90;36.20;;;7.70;75.60;;;;;;4998661;28;20446;-82
2022/03/26 02:04:08;;;;;;;57.20;38.05;;;7.60;75.70;;;;;;4988039;28;20041;-81
2022/03/26 02:06:36;;;;;;;58.78;37.03;;;7.60;75.70;;;;;;4989827;28;20038;-83
2022/03/26 02:09:07;;;;;;;61.42;38.58;;;7.60;75.90;;;;;;4988976;28;20586;-81
2022/03/26 02:11:35;;;;;;;55.83;36.03;;;7.60;76.10;;;;;;4982351;28;20506;-82
2022/03/26 02:14:03;;;;;;;58.13;38.60;;;7.60;76.00;;;;;;4993798;28;20034;-82
2022/03/26 02:16:30;;;;;;;56.45;38.10;;;7.60;76.10;;;;;;4979219;28;20492;-82
2022/03/26 02:18:56;;;;;;;61.53;37.50;;;7.60;76.10;;;;;;5004395;28;20303;-78
2022/03/26 02:21:22;;;;;;;56.60;37.50;;;7.50;76.40;;;;;;5023859;28;20014;-80
2022/03/26 02:23:49;;;;;;;55.22;37.20;;;7.50;76.30;;;;;;5019076;28;20030;-77
2022/03/26 02:26:20;;;;;;;57.40;37.50;;;7.50;76.40;;;;;;5032788;28;20018;-79
2022/03/26 02:28:46;;;;;;;59.03;36.90;;;7.40;76.50;;;;;;5006267;28;20536;-81
2022/03/26 02:31:16;;;;;;;61.55;37.92;;;7.40;76.80;;;;;;4987438;28;20034;-79
2022/03/26 02:33:42;;;;;;;61.40;39.22;;;7.40;76.70;;;;;;4989386;28;20055;-78
2022/03/26 02:36:09;;;;;;;57.75;36.83;;;7.30;76.70;;;;;;4997923;28;20585;-80
2022/03/26 02:38:35;;;;;;;64.28;38.42;;;7.40;77.00;;;;;;4999600;28;20128;-80
2022/03/26 02:41:01;;;;;;;60.70;38.70;;;7.30;77.00;;;;;;5000493;28;20303;-79
2022/03/26 02:43:27;;;;;;;60.90;37.58;;;7.30;77.00;;;;;;5002069;28;20303;-82
2022/03/26 02:45:53;;;;;;;58.90;38.25;;;7.30;77.20;;;;;;5003991;28;20139;-82
2022/03/26 02:48:18;;;;;;;59.67;37.90;;;7.20;77.40;;;;;;4985459;28;20118;-81
2022/03/26 02:50:45;;;;;;;58.03;37.17;;;7.20;77.50;;;;;;5003779;28;20037;-80
2022/03/26 02:53:12;;;;;;;63.30;40.10;;;7.20;77.50;;;;;;5004356;28;20039;-81
2022/03/26 02:55:38;;;;;;;68.18;40.88;;;7.10;77.70;;;;;;5016997;28;20088;-82
2022/03/26 02:58:05;;;;;;;63.70;38.63;;;7.10;78.00;;;;;;4997640;28;20121;-78
2022/03/26 03:00:31;;;;;;;59.95;38.20;;;7.10;78.30;;;;;;5008600;28;20124;-81
2022/03/26 03:02:57;;;;;;;62.33;40.13;;;7.10;78.20;;;;;;4993722;28;20026;-79
2022/03/26 03:05:23;;;;;;;62.40;40.88;;;7.10;78.10;;;;;;4994045;28;20062;-83
2022/03/26 03:07:48;;;;;;;60.65;39.67;;;7.10;78.30;;;;;;4998669;28;20037;-81
2022/03/26 03:10:16;;;;;;;60.55;37.80;;;7.10;78.60;;;;;;5003522;28;20030;-83
2022/03/26 03:12:43;;;;;;;65.13;41.47;;;7.10;78.70;;;;;;4983779;28;20437;-81
2022/03/26 03:15:10;;;;;;;62.03;39.92;;;7.10;78.70;;;;;;4992644;28;20034;-78
2022/03/26 03:17:42;;;;;;;62.60;37.90;;;7.10;78.70;;;;;;5000963;28;20492;-82
2022/03/26 03:20:09;;;;;;;64.30;40.72;;;7.10;78.80;;;;;;4999722;28;20044;-80
2022/03/26 03:22:36;;;;;;;63.83;39.70;;;7.10;79.00;;;;;;4994968;28;20137;-81
2022/03/26 03:25:03;;;;;;;64.72;40.95;;;7.10;79.00;;;;;;4988594;28;20390;-79
2022/03/26 03:27:28;;;;;;;68.55;40.92;;;7.00;79.10;;;;;;4992446;28;20626;-80
2022/03/26 03:29:54;;;;;;;63.42;42.45;;;7.00;79.20;;;;;;4992454;28;20039;-82
2022/03/26 03:32:20;;;;;;;69.78;41.85;;;7.00;79.40;;;;;;4987180;28;20026;-82
2022/03/26 03:34:45;;;;;;;63.45;41.70;;;7.00;79.30;;;;;;5001101;28;20034;-81
2022/03/26 03:37:11;;;;;;;62.58;41.45;;;7.00;79.40;;;;;;4986200;28;20033;-82
2022/03/26 03:39:37;;;;;;;66.25;40.80;;;6.90;79.60;;;;;;4992835;28;20041;-82
2022/03/26 03:42:04;;;;;;;66.35;41.85;;;6.90;79.70;;;;;;4990953;28;20032;-80
2022/03/26 03:44:30;;;;;;;65.22;41.10;;;6.90;79.80;;;;;;4990366;28;20353;-82
2022/03/26 03:46:56;;;;;;;62.78;40.45;;;7.00;79.80;;;;;;4984745;28;20403;-83
2022/03/26 03:49:21;;;;;;;66.75;40.17;;;6.90;79.70;;;;;;4996699;28;20046;-81
2022/03/26 03:51:47;;;;;;;64.18;40.40;;;6.90;79.80;;;;;;4989686;28;20050;-82
2022/03/26 03:54:14;;;;;;;66.80;42.88;;;6.90;79.90;;;;;;4989535;28;20038;-82
2022/03/26 03:56:39;;;;;;;65.30;40.72;;;6.90;80.10;;;;;;4985798;28;20027;-81
2022/03/26 03:59:05;;;;;;;68.85;43.28;;;6.80;80.10;;;;;;4989455;28;20034;-80
2022/03/26 04:01:31;;;;;;;69.78;43.47;;;6.80;80.10;;;;;;5016115;28;20033;-78
2022/03/26 04:03:57;;;;;;;67.50;42.08;;;6.80;80.20;;;;;;5021425;28;20030;-78
2022/03/26 04:06:23;;;;;;;69.90;41.55;;;6.80;80.20;;;;;;5018116;28;20014;-78
2022/03/26 04:08:49;;;;;;;64.43;40.42;;;6.80;80.40;;;;;;5020027;28;20431;-81
2022/03/26 04:11:15;;;;;;;67.22;41.20;;;6.70;80.30;;;;;;4980378;28;20537;-80
2022/03/26 04:13:40;;;;;;;72.40;42.60;;;6.70;80.40;;;;;;4997535;28;20033;-82
2022/03/26 04:16:06;;;;;;;67.13;41.03;;;6.70;80.40;;;;;;4998461;28;20065;-81
2022/03/26 04:18:32;;;;;;;64.88;40.45;;;6.60;80.50;;;;;;4986004;28;20046;-79
2022/03/26 04:20:58;;;;;;;65.80;41.53;;;6.60;80.50;;;;;;4996132;28;20037;-83
2022/03/26 04:23:24;;;;;;;64.20;41.42;;;6.60;80.60;;;;;;4994836;28;20347;-81
2022/03/26 04:25:50;;;;;;;63.00;40.72;;;6.60;80.80;;;;;;4979756;28;20080;-82
2022/03/26 04:28:15;;;;;;;67.40;41.70;;;6.60;81.00;;;;;;4991947;28;20107;-83
2022/03/26 04:30:41;;;;;;;64.20;41.30;;;6.50;81.00;;;;;;4995652;28;20402;-82
2022/03/26 04:33:07;;;;;;;71.22;41.67;;;6.50;81.20;;;;;;4991633;28;20031;-79
2022/03/26 04:35:33;;;;;;;70.22;42.30;;;6.50;81.10;;;;;;4995407;28;20058;-81
2022/03/26 04:37:59;;;;;;;69.90;42.33;;;6.50;81.10;;;;;;4983657;28;20576;-81
2022/03/26 04:40:26;;;;;;;71.38;42.00;;;6.40;81.50;;;;;;4998754;28;20103;-78
2022/03/26 04:42:53;;;;;;;63.03;41.10;;;6.40;81.50;;;;;;4995745;28;20040;-80
2022/03/26 04:45:19;;;;;;;65.70;41.17;;;6.40;81.50;;;;;;4990759;28;20157;-80
2022/03/26 04:47:44;;;;;;;64.30;42.45;;;6.40;81.70;;;;;;4980585;28;20030;-81
2022/03/26 04:50:11;;;;;;;66.60;42.25;;;6.40;81.70;;;;;;4993049;28;20022;-80
2022/03/26 04:52:37;;;;;;;67.15;41.97;;;6.40;81.80;;;;;;4994724;28;20474;-83
2022/03/26 04:55:03;;;;;;;66.18;42.58;;;6.30;81.80;;;;;;4983587;28;20033;-78
2022/03/26 04:57:29;;;;;;;68.53;40.90;;;6.30;81.90;;;;;;4995365;28;20347;-80
2022/03/26 04:59:55;;;;;;;69.03;41.83;;;6.30;82.10;;;;;;4986618;28;20465;-81
2022/03/26 05:02:21;;;;;;;76.15;43.55;;;6.30;82.10;;;;;;4996219;28;20578;-82
2022/03/26 05:04:46;;;;;;;67.07;42.00;;;6.20;82.30;;;;;;4993421;28;20467;-80
2022/03/26 05:09:56;;;;;;;72.23;43.03;;;6.20;82.30;;;;;;4986771;28;20350;-80
2022/03/26 05:12:22;;;;;;;68.78;44.00;;;6.20;82.40;;;;;;4973427;28;20265;-81
2022/03/26 05:14:48;;;;;;;65.57;41.33;;;6.10;82.30;;;;;;5000424;28;20302;-82
2022/03/26 05:17:14;;;;;;;71.30;42.55;;;6.10;82.40;;;;;;4994467;28;20044;-81
2022/03/26 05:19:39;;;;;;;67.57;41.92;;;6.10;82.50;;;;;;4994570;28;20522;-81
2022/03/26 05:22:05;;;;;;;69.75;42.35;;;6.10;82.60;;;;;;5008410;28;20347;-81
2022/03/26 05:24:32;;;;;;;77.00;44.38;;;6.10;82.70;;;;;;4981354;28;20119;-81
2022/03/26 05:26:58;;;;;;;70.07;44.00;;;6.00;82.80;;;;;;5003110;28;20284;-81
2022/03/26 05:29:23;;;;;;;74.22;42.72;;;6.00;83.10;;;;;;5015956;28;20288;-77
2022/03/26 05:31:49;;;;;;;73.00;43.95;;;6.00;83.10;;;;;;5025700;28;20029;-81
2022/03/26 05:34:15;;;;;;;72.90;43.58;;;6.00;83.00;;;;;;5024227;28;20026;-78
2022/03/26 05:36:41;;;;;;;67.35;42.50;;;6.00;83.00;;;;;;5019403;28;20090;-77
2022/03/26 05:39:07;;;;;;;76.60;43.45;;;6.00;83.00;;;;;;5006094;28;20030;-80
2022/03/26 05:41:32;;;;;;;67.53;41.20;;;6.00;83.00;;;;;;4996985;28;20036;-79
2022/03/26 05:43:59;;;;;;;68.13;41.40;;;6.00;83.00;;;;;;5004950;28;20057;-77
2022/03/26 05:46:25;;;;;;;67.20;41.58;;;6.00;83.10;;;;;;5025080;28;20105;-78
2022/03/26 05:48:50;;;;;;;70.72;42.90;;;6.10;83.00;;;;;;5037670;28;20029;-78
2022/03/26 05:51:16;;;;;;;74.10;43.55;;;6.10;83.00;;;;;;5012479;28;20311;-81
2022/03/26 05:53:42;;;;;;;70.68;42.67;;;6.10;83.20;;;;;;5004236;28;20034;-81
2022/03/26 05:56:08;;;;;;;70.70;43.75;;;6.10;83.30;;;;;;4971561;28;20461;-79
2022/03/26 05:58:34;;;;;;;69.95;43.50;;;6.20;83.10;;;;;;4968235;28;20482;-80
2022/03/26 06:01:00;;;;;;;67.30;41.90;;;6.20;83.00;;;;;;4991796;28;20278;-83
2022/03/26 06:03:26;;;;;;;71.72;43.00;;;6.20;83.10;;;;;;5009367;28;20060;-79
2022/03/26 06:05:51;;;;;;;72.68;41.40;;;6.20;83.00;;;;;;5012705;28;20060;-81
2022/03/26 06:08:17;;;;;;;63.78;41.45;;;6.20;82.90;;;;;;4992823;28;20038;-80
2022/03/26 06:10:43;;;;;;;70.00;42.97;;;6.30;82.80;;;;;;4986732;28;20124;-80
2022/03/26 06:13:09;;;;;;;74.55;43.03;;;6.30;82.80;;;;;;5008280;28;20495;-79
2022/03/26 06:15:34;;;;;;;66.32;40.90;;;6.30;82.80;;;;;;4994814;28;20049;-81
2022/03/26 06:18:03;;;;;;;66.90;41.20;;;6.40;82.70;;;;;;4998618;28;20043;-79
2022/03/26 06:20:29;;;;;;;71.57;41.40;;;6.40;82.50;;;;;;4990493;28;20489;-80
2022/03/26 06:22:55;;;;;;;73.65;41.47;;;6.50;82.40;;;;;;4990375;28;20033;-80
2022/03/26 06:25:21;;;;;;;67.38;42.42;;;6.50;82.30;;;;;;5003316;28;20091;-79
2022/03/26 06:27:47;;;;;;;68.47;40.30;;;6.60;82.20;;;;;;4995740;28;20041;-80
2022/03/26 06:30:13;;;;;;;72.07;43.03;;;6.60;81.90;;;;;;4993233;28;20401;-80
2022/03/26 06:32:39;;;;;;;63.50;39.40;;;6.60;81.70;;;;;;4998742;28;20030;-80
2022/03/26 06:35:05;;;;;;;68.28;42.50;;;6.70;81.60;;;;;;4994749;28;20038;-81
2022/03/26 06:37:31;;;;;;;69.32;42.28;;;6.80;81.50;;;;;;5001335;28;20108;-80
2022/03/26 06:39:58;;;;;;;70.90;42.30;;;6.80;81.30;;;;;;5000267;28;20101;-79
2022/03/26 06:42:25;;;;;;;70.68;45.72;;;6.80;81.50;;;;;;4994200;28;20030;-81
2022/03/26 06:44:52;;;;;;;66.82;42.15;;;7.00;81.50;;;;;;4989339;28;20042;-80
2022/03/26 06:47:17;;;;;;;69.80;42.13;;;7.40;80.50;;;;;;4996306;28;20476;-80
2022/03/26 06:49:43;;;;;;;71.60;42.28;;;7.80;78.90;;;;;;4998547;28;20560;-80
2022/03/26 06:52:09;;;;;;;66.45;39.92;;;8.00;77.80;;;;;;4999446;28;20057;-81
2022/03/26 06:54:35;;;;;;;67.57;39.78;;;8.10;77.60;;;;;;4987414;28;20038;-78
2022/03/26 06:57:00;;;;;;;67.68;40.65;;;8.10;77.20;;;;;;4995526;28;20030;-83
2022/03/26 06:59:26;;;;;;;65.75;40.83;;;7.80;77.90;;;;;;4996038;28;20038;-80
2022/03/26 07:01:52;;;;;;;65.72;40.97;;;7.60;78.60;;;;;;4992570;28;20129;-80
2022/03/26 07:04:17;;;;;;;68.60;41.15;;;7.60;79.10;;;;;;4993056;28;20084;-83
2022/03/26 07:06:43;;;;;;;70.00;42.70;;;7.60;79.30;;;;;;4993014;28;20039;-81
2022/03/26 07:09:09;;;;;;;65.85;40.75;;;7.50;79.60;;;;;;4991397;28;20034;-80
2022/03/26 07:11:35;;;;;;;67.95;40.88;;;7.50;79.70;;;;;;4997308;28;20126;-80
2022/03/26 07:14:01;;;;;;;68.18;42.03;;;7.60;80.00;;;;;;4996248;28;20060;-79
2022/03/26 07:16:26;;;;;;;65.65;40.95;;;7.60;79.90;;;;;;4992480;28;20495;-80
2022/03/26 07:18:52;;;;;;;67.03;40.50;;;7.70;79.60;;;;;;4990715;28;20541;-79
2022/03/26 07:21:18;;;;;;;63.67;42.33;;;7.90;79.50;;;;;;4980248;28;20409;-81
2022/03/26 07:23:43;;;;;;;64.10;40.28;;;8.00;78.80;;;;;;4997373;28;20046;-80
2022/03/26 07:26:09;;;;;;;61.63;39.08;;;8.10;78.40;;;;;;5017255;28;20042;-75
2022/03/26 07:28:35;;;;;;;66.85;39.83;;;8.20;78.20;;;;;;5021345;28;20083;-78
2022/03/26 07:31:00;;;;;;;61.85;39.65;;;8.30;77.90;;;;;;5003853;28;20014;-77
2022/03/26 07:33:27;;;;;;;64.88;40.47;;;8.40;77.80;;;;;;4990746;28;20088;-81
2022/03/26 07:35:55;;;;;;;67.07;39.95;;;8.50;77.30;;;;;;5001902;28;20038;-81
2022/03/26 07:38:20;;;;;;;69.45;41.13;;;8.60;76.80;;;;;;4979298;28;20561;-79
2022/03/26 07:40:47;;;;;;;58.13;38.13;;;8.80;77.10;;;;;;4988473;28;20053;-81
2022/03/26 07:43:12;;;;;;;60.28;38.30;;;8.90;75.90;;;;;;4989039;28;20125;-80
2022/03/26 07:45:38;;;;;;;70.38;39.83;;;9.00;75.60;;;;;;4969025;28;20524;-81
2022/03/26 07:48:04;;;;;;;66.15;38.63;;;9.20;75.20;;;;;;4984732;28;20046;-78
2022/03/26 07:50:31;;;;;;;59.47;40.33;;;9.40;74.80;;;;;;4990460;28;20031;-81
2022/03/26 07:52:56;;;;;;;61.72;39.38;;;9.60;74.40;;;;;;4987800;28;20177;-78
2022/03/26 07:55:22;;;;;;;58.97;37.47;;;9.60;72.90;;;;;;4993798;28;20038;-81
2022/03/26 07:57:48;;;;;;;65.60;39.22;;;9.90;73.10;;;;;;4995771;28;20493;-81
2022/03/26 08:00:14;;;;;;;61.42;37.25;;;10.00;71.90;;;;;;4991733;28;20046;-78
2022/03/26 08:02:40;;;;;;;61.92;37.55;;;10.10;71.30;;;;;;4999619;28;20093;-79
2022/03/26 08:05:06;;;;;;;53.17;36.63;;;10.20;71.40;;;;;;4989278;28;20034;-82
2022/03/26 08:07:32;;;;;;;58.53;37.88;;;10.20;70.10;;;;;;4985765;28;20053;-79
2022/03/26 08:09:57;;;;;;;55.75;36.83;;;10.30;69.80;;;;;;4989486;28;20418;-80
2022/03/26 08:12:23;;;;;;;55.15;37.60;;;10.40;70.00;;;;;;4995485;28;20026;-78
2022/03/26 08:14:48;;;;;;;58.92;38.45;;;10.50;70.30;;;;;;4990065;28;20034;-80
2022/03/26 08:17:14;;;;;;;62.67;38.20;;;10.80;69.50;;;;;;4990677;28;20048;-81
2022/03/26 08:19:40;;;;;;;57.53;36.85;;;11.00;69.10;;;;;;4999823;28;20540;-83
2022/03/26 08:22:06;;;;;;;55.50;37.92;;;11.10;67.70;;;;;;4986448;28;20144;-79
2022/03/26 08:24:32;;;;;;;58.45;37.25;;;11.20;67.80;;;;;;4995217;28;20449;-80
2022/03/26 08:26:57;;;;;;;52.00;35.47;;;11.50;67.00;;;;;;4992670;28;20399;-82
2022/03/26 08:29:23;;;;;;;56.45;36.88;;;11.70;66.50;;;;;;4988841;28;20043;-79
2022/03/26 08:31:49;;;;;;;55.22;37.45;;;11.60;65.60;;;;;;4999518;28;20044;-78
2022/03/26 08:34:15;;;;;;;57.92;36.85;;;11.80;65.50;;;;;;5000664;28;20030;-83
2022/03/26 08:36:40;;;;;;;53.70;35.63;;;12.00;63.40;;;;;;5014272;28;20079;-80
2022/03/26 08:39:06;;;;;;;57.55;37.38;;;12.20;64.10;;;;;;5013480;28;20258;-76
2022/03/26 08:41:32;;;;;;;56.22;38.03;;;12.40;63.70;;;;;;5008515;28;20054;-81
2022/03/26 08:43:58;;;;;;;56.65;36.25;;;12.30;62.60;;;;;;4990545;28;20492;-84
2022/03/26 08:46:24;;;;;;;56.95;37.30;;;12.60;63.60;;;;;;5000639;28;20066;-78
2022/03/26 08:48:50;;;;;;;54.00;36.78;;;12.70;62.40;;;;;;4998264;28;20046;-82
2022/03/26 08:51:16;;;;;;;55.80;37.60;;;13.10;61.50;;;;;;4988418;28;20178;-83
2022/03/26 08:53:42;;;;;;;53.63;37.30;;;13.20;60.80;;;;;;4998928;28;20045;-82
2022/03/26 08:56:08;;;;;;;51.90;36.83;;;13.10;59.90;;;;;;4995525;28;20103;-80
2022/03/26 08:58:34;;;;;;;54.47;37.25;;;13.30;60.10;;;;;;4978953;28;20148;-76
2022/03/26 09:01:01;;;;;;;53.78;35.35;;;13.50;59.60;;;;;;4981751;28;20385;-82
2022/03/26 09:03:27;;;;;;;51.08;35.67;;;13.50;58.00;;;;;;4971944;28;20441;-84
2022/03/26 09:05:53;;;;;;;51.85;35.38;;;13.70;56.80;;;;;;5008969;28;20034;-77
2022/03/26 09:08:19;;;;;;;59.17;37.22;;;13.60;56.10;;;;;;5014414;28;20167;-75
2022/03/26 09:10:45;;;;;;;50.70;36.40;;;13.60;55.50;;;;;;5023527;28;20041;-76
2022/03/26 09:13:12;;;;;;;53.80;37.33;;;13.80;56.40;;;;;;5010414;28;20042;-83
2022/03/26 09:15:38;;;;;;;57.25;37.55;;;14.30;56.10;;;;;;4992899;28;20046;-82
2022/03/26 09:18:04;;;;;;;51.17;35.78;;;14.60;54.80;;;;;;4996381;28;20046;-80
2022/03/26 09:20:30;;;;;;;51.95;33.97;;;14.50;53.80;;;;;;4978667;28;20442;-82
2022/03/26 09:22:56;;;;;;;49.70;35.38;;;14.40;54.10;;;;;;4995859;28;20097;-76
2022/03/26 09:25:22;;;;;;;52.45;35.10;;;14.60;53.60;;;;;;4982889;28;20034;-81
2022/03/26 09:27:49;;;;;;;58.60;36.60;;;14.80;54.20;;;;;;4991759;28;20088;-79
2022/03/26 09:30:15;;;;;;;53.70;35.78;;;14.60;53.80;;;;;;4989231;28;20128;-77
2022/03/26 09:32:41;;;;;;;53.40;35.55;;;14.80;53.60;;;;;;4975393;28;20030;-82
2022/03/26 09:35:07;;;;;;;57.88;36.00;;;15.00;53.60;;;;;;4988466;28;20727;-83
2022/03/26 09:37:34;;;;;;;50.03;34.25;;;15.30;52.10;;;;;;4987788;28;20416;-78
2022/03/26 09:40:02;;;;;;;52.88;34.92;;;15.40;51.50;;;;;;4987725;28;20541;-81
2022/03/26 09:42:29;;;;;;;50.67;33.88;;;15.30;50.80;;;;;;4986101;28;20180;-80
2022/03/26 09:44:56;;;;;;;47.15;33.85;;;15.10;51.60;;;;;;4995371;28;20061;-79
2022/03/26 09:47:23;;;;;;;53.20;34.28;;;15.40;50.40;;;;;;4990319;28;20030;-80
2022/03/26 09:49:49;;;;;;;51.17;33.92;;;15.70;50.00;;;;;;4991648;28;20069;-81
2022/03/26 09:52:15;;;;;;;49.22;34.00;;;15.80;49.60;;;;;;4990187;28;20521;-80
2022/03/26 09:54:41;;;;;;;50.70;34.45;;;16.00;49.20;;;;;;4990812;28;20512;-81
2022/03/26 09:57:07;;;;;;;50.20;34.10;;;16.10;47.80;;;;;;4991067;28;20042;-80
2022/03/26 09:59:33;;;;;;;48.60;33.78;;;15.90;48.90;;;;;;4990635;28;20049;-82
2022/03/26 10:01:59;;;;;;;51.42;34.20;;;16.30;47.70;;;;;;4995761;28;20038;-76
2022/03/26 10:04:35;;;;;;;49.28;34.15;;;16.50;46.30;;;;;;4994342;28;20113;-76
2022/03/26 10:07:01;;;;;;;46.88;33.97;;;16.10;47.20;;;;;;4989487;28;20041;-77
2022/03/26 10:09:27;;;;;;;50.55;33.92;;;16.20;47.30;;;;;;4987685;28;20042;-77
2022/03/26 10:12:17;;;;;;;48.00;33.58;;;16.20;46.40;;;;;;5000411;28;20053;-78
2022/03/26 10:14:59;;;;;;;54.58;33.15;;;16.20;47.60;;;;;;4996117;28;20057;-77
2022/03/26 10:17:27;;;;;;;46.25;33.08;;;16.40;47.60;;;;;;4997923;28;20048;-79
2022/03/26 10:19:55;;;;;;;46.10;32.80;;;16.80;46.90;;;;;;4985552;28;20035;-78
2022/03/26 10:22:26;;;;;;;48.45;32.08;;;17.10;45.80;;;;;;4974583;28;20031;-76
2022/03/26 10:24:57;;;;;;;51.50;34.35;;;17.60;45.70;;;;;;4972969;28;20476;-77
2022/03/26 10:27:23;;;;;;;50.45;34.45;;;17.40;44.50;;;;;;4972774;28;20034;-76
2022/03/26 10:29:49;;;;;;;56.40;35.63;;;17.10;45.50;;;;;;4994373;28;20497;-76
2022/03/26 10:32:41;;;;;;;48.33;33.78;;;17.10;45.30;;;;;;4996449;28;20774;-77
2022/03/26 10:35:12;;;;;;;48.60;32.28;;;17.20;45.50;;;;;;4990038;28;20043;-72
2022/03/26 10:37:45;;;;;;;55.80;34.80;;;17.30;45.60;;;;;;4993291;28;20477;-79
2022/03/26 10:40:22;;;;;;;50.78;34.42;;;17.10;44.80;;;;;;4998333;28;20493;-78
2022/03/26 10:43:06;;;;;;;47.08;34.42;;;17.60;45.40;;;;;;4974701;28;20104;-77
2022/03/26 10:45:36;;;;;;;55.17;36.95;;;18.00;43.60;;;;;;4983690;28;20830;-77
2022/03/26 10:48:07;;;;;;;47.72;34.45;;;18.10;42.70;;;;;;4986153;28;20813;-79
2022/03/26 10:50:34;;;;;;;51.72;33.80;;;18.30;44.00;;;;;;4994234;28;20095;-79
2022/03/26 10:53:20;;;;;;;51.08;33.42;;;18.40;42.20;;;;;;4997969;28;20042;-78
2022/03/26 10:55:49;;;;;;;49.88;34.22;;;18.70;42.00;;;;;;4993365;28;20033;-80
2022/03/26 10:58:15;;;;;;;47.13;33.58;;;18.60;40.70;;;;;;4994208;28;20118;-78
2022/03/26 11:00:43;;;;;;;48.45;33.28;;;18.60;39.80;;;;;;4991390;28;21004;-77
2022/03/26 11:03:10;;;;;;;45.83;32.63;;;18.60;39.90;;;;;;4988255;28;20487;-76
2022/03/26 11:05:38;;;;;;;57.38;35.30;;;18.60;40.60;;;;;;4981288;28;20058;-78
2022/03/26 11:08:05;;;;;;;49.28;32.53;;;18.60;40.20;;;;;;4975361;28;20022;-77
2022/03/26 11:10:32;;;;;;;46.80;33.63;;;18.80;39.70;;;;;;4997586;28;20033;-79
2022/03/26 11:12:59;;;;;;;47.13;31.60;;;18.90;39.50;;;;;;4994145;28;20030;-79
2022/03/26 11:15:32;;;;;;;46.40;31.10;;;18.80;38.70;;;;;;4998215;28;20029;-78
2022/03/26 11:18:27;;;;;;;44.78;30.60;;;18.60;39.20;;;;;;4976138;28;20530;-78
2022/03/26 11:21:20;;;;;;;46.03;31.83;;;18.60;39.60;;;;;;4987722;28;20050;-78
2022/03/26 11:24:00;;;;;;;46.00;30.60;;;18.90;38.50;;;;;;4988130;28;20037;-79
2022/03/26 11:26:40;;;;;;;43.97;31.25;;;18.30;38.40;;;;;;4998598;28;20038;-77
2022/03/26 11:29:27;;;;;;;45.50;29.75;;;18.50;39.00;;;;;;4994005;28;20054;-77
2022/03/26 11:31:55;;;;;;;44.42;30.83;;;18.80;38.70;;;;;;4987223;28;20145;-77
2022/03/26 11:34:21;;;;;;;44.38;31.15;;;18.90;38.30;;;;;;4996348;28;21153;-79
2022/03/26 11:36:50;;;;;;;41.40;28.08;;;18.80;38.20;;;;;;4973277;28;20038;-77
2022/03/26 11:39:19;;;;;;;47.53;32.00;;;18.60;39.00;;;;;;4991824;28;20065;-76
2022/03/26 11:41:45;;;;;;;47.47;31.85;;;18.70;38.00;;;;;;4994839;28;20855;-79
2022/03/26 11:44:14;;;;;;;46.38;31.98;;;18.70;39.10;;;;;;5003037;28;20050;-77
2022/03/26 11:52:19;;;;;;;38.15;25.65;;;19.10;36.60;;;;;;4988525;28;20473;-80
2022/03/26 11:54:47;;;;;;;40.40;27.73;;;19.20;36.90;;;;;;4985152;28;20034;-80
2022/03/26 11:57:17;;;;;;;38.78;26.60;;;19.30;37.10;;;;;;4987267;28;20042;-80
2022/03/26 11:59:44;;;;;;;35.67;24.40;;;19.40;36.50;;;;;;4985814;28;20022;-79
2022/03/26 12:02:34;;;;;;;39.00;25.35;;;19.40;36.70;;;;;;4990013;28;21577;-80
2022/03/26 12:07:49;;;;;;;44.75;24.85;;;19.30;36.10;;;;;;4984713;28;20097;-81
2022/03/26 12:10:19;;;;;;;39.42;24.20;;;19.60;36.10;;;;;;4986525;28;20056;-79
2022/03/26 12:12:45;;;;;;;39.38;24.40;;;19.70;36.00;;;;;;4992809;28;20052;-81
2022/03/26 12:15:12;;;;;;;37.30;24.67;;;19.90;36.70;;;;;;4996597;28;20040;-80
2022/03/26 12:17:45;;;;;;;36.88;24.48;;;19.90;35.60;;;;;;4999907;28;20065;-82
2022/03/26 12:20:37;;;;;;;41.22;23.52;;;20.10;36.30;;;;;;4976419;28;20034;-81
2022/03/26 12:23:10;;;;;;;32.35;22.90;;;20.20;36.20;;;;;;4967664;28;20039;-79
2022/03/26 12:25:46;;;;;;;38.10;23.52;;;20.10;35.60;;;;;;4981438;28;20037;-79
2022/03/26 12:28:14;;;;;;;40.22;20.73;;;19.60;35.10;;;;;;4995179;28;20061;-78
2022/03/26 12:30:45;;;;;;;40.17;23.23;;;19.40;36.00;;;;;;4996361;28;20045;-80
2022/03/26 12:33:12;;;;;;;35.78;22.10;;;19.60;37.20;;;;;;4975591;28;20988;-78
2022/03/26 12:35:38;;;;;;;33.35;22.60;;;19.30;36.80;;;;;;4993974;28;20041;-81
2022/03/26 12:38:06;;;;;;;36.10;21.58;;;19.50;37.00;;;;;;4996378;28;20065;-80
2022/03/26 12:40:33;;;;;;;37.15;21.85;;;19.90;36.00;;;;;;4994447;28;20117;-79
2022/03/26 12:42:58;;;;;;;33.53;21.85;;;19.60;35.60;;;;;;4999338;28;20092;-79
2022/03/26 12:45:24;;;;;;;32.58;21.17;;;19.60;35.30;;;;;;4993183;28;20041;-80